Time;durP1;ratioP1;P1;durP2;ratioP2;P2;SDS_P1;SDS_P2;PMS_P1;PMS_P2;Temp;Humidity;BMP_temperature;BMP_pressure;BME280_temperature;BME280_humidity;BME280_pressure;Samples;Min_cycle;Max_cycle;Signal;HPM_P1;HPM_P2
2021/07/26 00:01:34;;;;;;;5.18;3.38;;;19.50;99.90;;;;;;5071125;28;20054;-84
2021/07/26 00:04:00;;;;;;;5.32;3.20;;;18.20;99.90;;;;;;5068609;28;20044;-84
2021/07/26 00:06:26;;;;;;;4.72;3.40;;;18.60;99.90;;;;;;5070443;28;20036;-82
2021/07/26 00:08:52;;;;;;;10.05;4.78;;;18.20;99.90;;;;;;5071538;28;20028;-82
2021/07/26 00:11:17;;;;;;;5.72;3.05;;;18.20;99.90;;;;;;5065912;28;20159;-83
2021/07/26 00:13:43;;;;;;;6.32;2.85;;;18.10;99.90;;;;;;5073318;28;20044;-83
2021/07/26 00:16:09;;;;;;;5.57;3.80;;;18.10;99.90;;;;;;5071415;28;20029;-84
2021/07/26 00:18:34;;;;;;;6.60;3.28;;;18.10;99.90;;;;;;5075232;28;20424;-83
2021/07/26 00:21:01;;;;;;;5.68;3.50;;;18.10;99.90;;;;;;5066046;28;20120;-81
2021/07/26 00:23:27;;;;;;;6.82;3.38;;;18.00;99.90;;;;;;5069787;28;20028;-82
2021/07/26 00:25:54;;;;;;;11.95;5.22;;;;;;;;;;5066095;28;20025;-81
2021/07/26 00:28:19;;;;;;;11.35;4.35;;;18.00;99.90;;;;;;5071574;28;20696;-81
2021/07/26 00:30:45;;;;;;;5.22;3.30;;;;;;;;;;5070099;28;20115;-83
2021/07/26 00:36:31;;;;;;;;;;;18.00;99.90;;;;;;5071618;28;20059;-83
2021/07/26 00:38:57;;;;;;;6.95;3.35;;;18.00;99.90;;;;;;5073274;28;19909;-83
2021/07/26 00:41:23;;;;;;;5.13;3.10;;;17.90;99.90;;;;;;5067790;28;20036;-83
2021/07/26 00:43:49;;;;;;;8.43;3.00;;;18.00;99.90;;;;;;5067169;28;20028;-84
2021/07/26 00:46:15;;;;;;;4.03;2.90;;;18.80;99.90;;;;;;5080343;28;20082;-83
2021/07/26 00:48:41;;;;;;;5.10;2.70;;;17.90;99.90;;;;;;5076717;28;20325;-83
2021/07/26 00:51:07;;;;;;;7.13;3.10;;;19.30;99.90;;;;;;5070790;28;20064;-81
2021/07/26 00:53:34;;;;;;;5.88;2.90;;;;;;;;;;5078198;28;20024;-83
2021/07/26 00:56:00;;;;;;;4.38;2.70;;;17.80;99.90;;;;;;5078584;28;20083;-82
2021/07/26 00:58:26;;;;;;;5.97;3.03;;;;;;;;;;5077207;28;20059;-83
2021/07/26 01:00:52;;;;;;;18.10;4.55;;;;;;;;;;5076008;28;20105;-82
2021/07/26 01:03:17;;;;;;;5.70;3.10;;;17.80;99.90;;;;;;5081584;28;20116;-83
2021/07/26 01:05:43;;;;;;;5.78;2.97;;;17.80;99.90;;;;;;5089633;28;20060;-82
2021/07/26 01:08:09;;;;;;;5.70;3.20;;;;;;;;;;5079530;28;20021;-82
2021/07/26 01:10:35;;;;;;;6.03;3.00;;;17.90;99.90;;;;;;5076545;28;20031;-82
2021/07/26 01:13:00;;;;;;;4.15;2.60;;;17.80;99.90;;;;;;5071479;28;20036;-83
2021/07/26 01:15:26;;;;;;;4.30;2.67;;;17.80;99.90;;;;;;5069320;28;20129;-82
2021/07/26 01:18:30;;;;;;;4.85;2.92;;;17.90;99.90;;;;;;5078790;28;20052;-81
2021/07/26 01:21:07;;;;;;;4.88;2.95;;;17.80;99.90;;;;;;5078169;28;20081;-82
2021/07/26 01:23:35;;;;;;;4.40;2.95;;;17.70;99.90;;;;;;5085882;28;20042;-83
2021/07/26 01:26:02;;;;;;;5.57;2.90;;;18.90;99.90;;;;;;5075889;28;20576;-83
2021/07/26 01:28:32;;;;;;;4.55;2.95;;;17.60;99.90;;;;;;5079922;28;20021;-84
2021/07/26 01:30:58;;;;;;;;;;;17.50;99.90;;;;;;5076707;28;20029;-83
2021/07/26 01:33:24;;;;;;;3.90;2.55;;;17.60;99.90;;;;;;5072769;28;20055;-84
2021/07/26 01:35:51;;;;;;;4.60;2.50;;;;;;;;;;5076325;28;20028;-82
2021/07/26 01:38:18;;;;;;;8.02;2.72;;;17.60;99.90;;;;;;5077168;28;20037;-81
2021/07/26 01:40:49;;;;;;;7.22;3.38;;;18.70;99.90;;;;;;5077845;28;20020;-82
2021/07/26 01:43:15;;;;;;;6.55;3.00;;;17.50;99.90;;;;;;5075942;28;20076;-83
2021/07/26 01:45:41;;;;;;;6.22;2.80;;;;;;;;;;5081303;28;20029;-82
2021/07/26 01:48:14;;;;;;;8.27;3.58;;;17.50;99.90;;;;;;5076586;28;20120;-84
2021/07/26 01:50:46;;;;;;;9.23;4.00;;;17.60;99.90;;;;;;5078076;28;20031;-83
2021/07/26 01:53:13;;;;;;;4.78;3.03;;;18.00;99.90;;;;;;5072479;28;20071;-83
2021/07/26 01:55:39;;;;;;;6.00;2.90;;;17.50;99.90;;;;;;5076685;28;20084;-82
2021/07/26 01:58:05;;;;;;;7.50;4.25;;;17.50;99.90;;;;;;5069948;28;20558;-81
2021/07/26 02:00:30;;;;;;;7.53;3.40;;;17.50;99.90;;;;;;5071226;28;20106;-84
2021/07/26 02:02:56;;;;;;;5.13;3.15;;;17.50;99.90;;;;;;5069151;28;20043;-82
2021/07/26 02:05:22;;;;;;;5.75;2.83;;;17.50;99.90;;;;;;5070626;28;20118;-81
2021/07/26 02:07:47;;;;;;;7.18;3.88;;;18.70;99.90;;;;;;5070123;28;20020;-80
2021/07/26 02:10:13;;;;;;;8.15;3.63;;;18.90;99.90;;;;;;5071433;28;20032;-82
2021/07/26 02:12:38;;;;;;;7.40;3.28;;;17.50;99.90;;;;;;5073104;28;20055;-83
2021/07/26 02:15:05;;;;;;;6.72;3.50;;;17.50;99.90;;;;;;5078068;28;20033;-82
2021/07/26 02:17:30;;;;;;;8.00;3.00;;;17.40;99.90;;;;;;5070402;28;20022;-82
2021/07/26 02:19:56;;;;;;;5.00;3.22;;;19.80;99.90;;;;;;5074300;28;20504;-83
2021/07/26 02:22:22;;;;;;;4.80;3.15;;;21.20;99.90;;;;;;5074587;28;20092;-81
2021/07/26 02:24:47;;;;;;;6.57;3.05;;;18.70;99.90;;;;;;5073641;28;20032;-82
2021/07/26 02:27:13;;;;;;;5.93;3.38;;;17.40;99.90;;;;;;5066230;28;20531;-84
2021/07/26 02:29:38;;;;;;;6.50;3.10;;;17.70;99.90;;;;;;5064618;28;20042;-82
2021/07/26 02:32:05;;;;;;;5.40;3.03;;;17.40;99.90;;;;;;5067923;28;20025;-83
2021/07/26 02:34:30;;;;;;;5.53;3.17;;;17.40;99.90;;;;;;5070131;28;20024;-82
2021/07/26 02:36:56;;;;;;;7.60;3.40;;;17.80;99.90;;;;;;5076010;28;20035;-83
2021/07/26 02:39:21;;;;;;;6.53;3.35;;;17.50;99.90;;;;;;5073872;28;20020;-83
2021/07/26 02:41:47;;;;;;;5.18;3.30;;;18.50;99.90;;;;;;5071351;28;20089;-83
2021/07/26 02:44:12;;;;;;;4.55;3.03;;;17.40;99.90;;;;;;5067337;28;20036;-83
2021/07/26 02:46:38;;;;;;;6.60;3.35;;;17.50;99.90;;;;;;5074297;28;20035;-82
2021/07/26 02:49:04;;;;;;;5.32;3.10;;;17.50;99.90;;;;;;5069556;28;20028;-82
2021/07/26 02:51:29;;;;;;;5.72;3.58;;;17.40;99.90;;;;;;5078964;28;20461;-83
2021/07/26 02:53:56;;;;;;;4.88;3.60;;;19.70;99.90;;;;;;5076093;28;20056;-83
2021/07/26 02:56:21;;;;;;;6.07;3.42;;;17.40;99.90;;;;;;5072864;28;20028;-80
2021/07/26 02:58:47;;;;;;;4.05;2.80;;;17.50;99.90;;;;;;5069344;28;20044;-83
2021/07/26 03:01:13;;;;;;;4.90;3.28;;;17.40;99.90;;;;;;5074428;28;20028;-80
2021/07/26 03:03:39;;;;;;;4.30;2.90;;;17.40;99.90;;;;;;5079792;28;20024;-78
2021/07/26 03:06:12;;;;;;;5.07;3.20;;;17.40;99.90;;;;;;5072791;28;20029;-84
2021/07/26 03:08:37;;;;;;;4.68;3.08;;;17.40;99.90;;;;;;5075600;28;20032;-83
2021/07/26 03:11:08;;;;;;;4.63;3.00;;;18.40;99.90;;;;;;5080927;28;20109;-84
2021/07/26 03:13:34;;;;;;;5.25;3.10;;;18.80;99.90;;;;;;5068242;28;20021;-83
2021/07/26 03:16:07;;;;;;;5.90;3.22;;;18.40;99.90;;;;;;5070200;28;20029;-82
2021/07/26 03:18:33;;;;;;;5.38;3.10;;;17.20;99.90;;;;;;5064327;28;20024;-84
2021/07/26 03:20:59;;;;;;;4.60;3.22;;;17.90;99.90;;;;;;5070057;28;20043;-83
2021/07/26 03:23:25;;;;;;;5.95;3.10;;;17.20;99.90;;;;;;5069077;28;20032;-85
2021/07/26 03:25:50;;;;;;;5.57;3.30;;;17.20;99.90;;;;;;5068626;28;20032;-84
2021/07/26 03:28:16;;;;;;;6.20;2.85;;;17.20;99.90;;;;;;5071635;28;20028;-84
2021/07/26 03:30:41;;;;;;;9.90;3.47;;;17.20;99.90;;;;;;5065333;28;20056;-85
2021/07/26 03:33:07;;;;;;;6.38;3.05;;;17.20;99.90;;;;;;5068096;28;20039;-83
2021/07/26 03:35:32;;;;;;;4.53;3.10;;;17.10;99.90;;;;;;5069748;28;20025;-84
2021/07/26 03:37:59;;;;;;;4.93;3.13;;;17.00;99.90;;;;;;5062414;28;20403;-81
2021/07/26 03:40:24;;;;;;;5.25;3.47;;;17.10;99.90;;;;;;5069649;28;20020;-83
2021/07/26 03:42:50;;;;;;;6.45;3.38;;;17.00;99.90;;;;;;5070972;28;20027;-84
2021/07/26 03:45:19;;;;;;;5.57;3.35;;;17.10;99.90;;;;;;5070996;28;20112;-84
2021/07/26 03:47:45;;;;;;;4.60;2.92;;;17.10;99.90;;;;;;5068995;28;20040;-84
2021/07/26 03:50:13;;;;;;;5.55;3.55;;;17.10;99.90;;;;;;5071105;28;20391;-83
2021/07/26 03:52:50;;;;;;;8.13;3.25;;;19.00;99.90;;;;;;5069110;28;20027;-83
2021/07/26 03:55:18;;;;;;;4.80;3.08;;;17.10;99.90;;;;;;5068869;28;20179;-86
2021/07/26 03:57:44;;;;;;;5.35;3.38;;;17.70;99.90;;;;;;5057904;28;20025;-83
2021/07/26 04:00:12;;;;;;;4.57;3.25;;;17.50;99.90;;;;;;5074183;28;20035;-84
2021/07/26 04:02:38;;;;;;;7.93;3.00;;;17.10;99.90;;;;;;5073874;28;20025;-84
2021/07/26 04:05:06;;;;;;;10.18;3.65;;;17.10;99.90;;;;;;5084627;28;20029;-83
2021/07/26 04:07:35;;;;;;;4.25;3.05;;;17.00;99.90;;;;;;5081151;28;20029;-82
2021/07/26 04:10:05;;;;;;;5.78;2.97;;;17.10;99.90;;;;;;5068586;28;20021;-87
2021/07/26 04:12:33;;;;;;;6.82;3.05;;;17.00;99.90;;;;;;5071880;28;20028;-83
2021/07/26 04:14:59;;;;;;;4.43;2.83;;;17.00;99.90;;;;;;5065541;28;20032;-85
2021/07/26 04:17:24;;;;;;;4.68;3.20;;;17.00;99.90;;;;;;5069975;28;20249;-83
2021/07/26 04:19:50;;;;;;;5.53;3.03;;;17.00;99.90;;;;;;5062238;28;20070;-84
2021/07/26 04:22:16;;;;;;;5.60;3.33;;;17.10;99.90;;;;;;5063014;28;20024;-84
2021/07/26 04:24:42;;;;;;;4.90;2.80;;;17.10;99.90;;;;;;5066201;28;20028;-82
2021/07/26 04:27:08;;;;;;;4.72;3.00;;;17.10;99.90;;;;;;5065539;28;20032;-82
2021/07/26 04:29:34;;;;;;;4.32;2.80;;;;;;;;;;5068527;28;20036;-83
2021/07/26 04:31:59;;;;;;;8.55;3.53;;;17.10;99.90;;;;;;5061947;28;20055;-83
2021/07/26 04:34:25;;;;;;;6.03;3.13;;;17.10;99.90;;;;;;5066766;28;20063;-84
2021/07/26 04:36:50;;;;;;;6.55;3.67;;;17.20;99.90;;;;;;5071336;28;20050;-84
2021/07/26 04:39:16;;;;;;;4.40;3.00;;;17.20;99.90;;;;;;5070805;28;20478;-82
2021/07/26 04:41:42;;;;;;;7.57;3.97;;;19.50;99.90;;;;;;5068137;28;20893;-82
2021/07/26 04:44:07;;;;;;;5.13;3.45;;;17.30;99.90;;;;;;5067064;28;20333;-83
2021/07/26 04:46:33;;;;;;;7.43;3.78;;;17.20;99.90;;;;;;5067369;28;20033;-84
2021/07/26 04:48:58;;;;;;;5.00;3.25;;;17.30;99.90;;;;;;5060626;28;20029;-84
2021/07/26 04:51:24;;;;;;;5.80;3.30;;;18.70;99.90;;;;;;5070836;28;20537;-83
2021/07/26 04:53:49;;;;;;;4.75;3.30;;;17.30;99.90;;;;;;5070663;28;20047;-85
2021/07/26 04:56:15;;;;;;;5.25;3.10;;;17.60;99.90;;;;;;5072039;28;20029;-83
2021/07/26 04:58:41;;;;;;;6.18;3.33;;;17.40;99.90;;;;;;5070751;28;20484;-84
2021/07/26 05:01:07;;;;;;;8.90;4.55;;;17.20;99.90;;;;;;5065726;28;20021;-84
2021/07/26 05:03:32;;;;;;;4.43;3.10;;;17.30;99.90;;;;;;5065988;28;20048;-84
2021/07/26 05:05:58;;;;;;;6.00;3.05;;;17.30;99.90;;;;;;5064945;28;20036;-83
2021/07/26 05:08:23;;;;;;;6.07;3.38;;;17.50;99.90;;;;;;5065452;28;20032;-83
2021/07/26 05:10:49;;;;;;;6.45;3.15;;;18.80;99.90;;;;;;5069926;28;20111;-81
2021/07/26 05:13:15;;;;;;;6.15;3.13;;;17.40;99.90;;;;;;5069231;28;20036;-82
2021/07/26 05:15:41;;;;;;;6.18;3.50;;;17.40;99.90;;;;;;5067017;28;20029;-83
2021/07/26 05:18:07;;;;;;;5.63;3.38;;;20.00;99.90;;;;;;5058817;28;20029;-84
2021/07/26 05:20:34;;;;;;;4.82;3.25;;;17.40;99.90;;;;;;5071814;28;20505;-83
2021/07/26 05:23:00;;;;;;;7.18;3.42;;;18.50;99.90;;;;;;5068343;28;20025;-82
2021/07/26 05:25:25;;;;;;;6.55;3.60;;;17.50;99.90;;;;;;5069798;28;20116;-82
2021/07/26 05:27:51;;;;;;;8.07;3.60;;;;;;;;;;5067598;28;20025;-84
2021/07/26 05:30:17;;;;;;;8.02;3.72;;;;;;;;;;5068599;28;20032;-83
2021/07/26 05:32:43;;;;;;;5.13;3.08;;;;;;;;;;5066442;28;20043;-82
2021/07/26 05:35:09;;;;;;;6.32;3.60;;;;;;;;;;5066337;28;20037;-81
2021/07/26 05:37:36;;;;;;;5.18;3.05;;;;;;;;;;5071247;28;20035;-82
2021/07/26 05:40:03;;;;;;;5.10;2.95;;;19.10;99.90;;;;;;5063424;28;20112;-82
2021/07/26 05:42:29;;;;;;;5.97;3.40;;;;;;;;;;5062052;28;20158;-80
2021/07/26 05:44:56;;;;;;;5.53;3.15;;;19.30;99.90;;;;;;5067891;28;20072;-82
2021/07/26 05:47:22;;;;;;;4.68;2.90;;;;;;;;;;5071043;28;20028;-83
2021/07/26 05:49:48;;;;;;;4.93;3.00;;;;;;;;;;5077228;28;20043;-83
2021/07/26 05:52:14;;;;;;;4.53;2.75;;;;;;;;;;5074833;28;20033;-83
2021/07/26 05:54:40;;;;;;;6.18;3.15;;;;;;;;;;5075703;28;20124;-83
2021/07/26 05:57:12;;;;;;;7.40;3.50;;;;;;;;;;5076517;28;20063;-82
2021/07/26 05:59:38;;;;;;;6.97;3.75;;;;;;;;;;5080442;28;20074;-82
2021/07/26 06:02:04;;;;;;;8.75;4.28;;;;;;;;;;5081737;28;20048;-82
2021/07/26 06:04:30;;;;;;;5.88;3.50;;;;;;;;;;5079057;28;20028;-83
2021/07/26 06:06:58;;;;;;;6.22;3.13;;;;;;;;;;5074537;28;20035;-82
2021/07/26 06:09:24;;;;;;;8.57;3.22;;;;;;;;;;5074487;28;20039;-83
2021/07/26 06:11:51;;;;;;;6.03;3.10;;;;;;;;;;5077983;28;20383;-81
2021/07/26 06:14:17;;;;;;;7.78;3.30;;;;;;;;;;5075898;28;20083;-84
2021/07/26 06:16:47;;;;;;;4.53;2.85;;;;;;;;;;5072978;28;20016;-84
2021/07/26 06:19:13;;;;;;;5.28;3.40;;;;;;;;;;5071006;28;20961;-83
2021/07/26 06:21:42;;;;;;;4.65;3.00;;;;;;;;;;5083797;28;20040;-84
2021/07/26 06:24:08;;;;;;;7.88;3.63;;;;;;;;;;5068309;28;20032;-83
2021/07/26 06:26:35;;;;;;;5.45;3.30;;;;;;;;;;5066185;28;20461;-81
2021/07/26 06:29:01;;;;;;;6.70;3.35;;;;;;;;;;5071261;28;20036;-82
2021/07/26 06:31:27;;;;;;;5.53;3.70;;;;;;;;;;5068657;28;20020;-83
2021/07/26 06:33:52;;;;;;;6.07;3.17;;;19.70;99.90;;;;;;5064017;28;20092;-82
2021/07/26 06:36:18;;;;;;;6.57;3.40;;;19.50;99.90;;;;;;5070487;28;20052;-82
2021/07/26 06:38:43;;;;;;;6.07;3.83;;;19.40;99.90;;;;;;5064899;28;20039;-83
2021/07/26 06:41:09;;;;;;;7.97;4.20;;;19.70;99.90;;;;;;5065365;28;20417;-83
2021/07/26 06:43:35;;;;;;;8.13;3.67;;;19.40;99.90;;;;;;5066212;28;20028;-84
2021/07/26 06:46:05;;;;;;;6.00;3.78;;;19.40;99.90;;;;;;5068906;28;20024;-83
2021/07/26 06:48:30;;;;;;;;;;;19.50;99.90;;;;;;5056583;28;20028;-81
2021/07/26 06:50:56;;;;;;;9.95;4.30;;;19.80;99.90;;;;;;5067846;28;19916;-81
2021/07/26 06:53:21;;;;;;;8.27;3.92;;;19.40;99.90;;;;;;5073065;28;20113;-82
2021/07/26 06:55:47;;;;;;;10.07;4.47;;;19.60;99.90;;;;;;5072280;28;20122;-81
2021/07/26 06:58:13;;;;;;;14.52;4.50;;;19.50;99.90;;;;;;5070429;28;20111;-82
2021/07/26 07:00:38;;;;;;;7.53;4.13;;;19.60;99.90;;;;;;5067461;28;20080;-81
2021/07/26 07:03:04;;;;;;;6.70;3.70;;;19.60;99.90;;;;;;5068908;28;20033;-82
2021/07/26 07:05:29;;;;;;;7.40;3.63;;;19.70;99.90;;;;;;5076018;28;20028;-82
2021/07/26 07:07:55;;;;;;;5.90;3.42;;;19.80;99.90;;;;;;5070592;28;20029;-81
2021/07/26 07:10:20;;;;;;;6.70;3.45;;;20.00;99.90;;;;;;5070737;28;20391;-83
2021/07/26 07:12:49;;;;;;;5.55;3.20;;;20.10;99.90;;;;;;5064863;28;20024;-80
2021/07/26 07:15:19;;;;;;;7.18;4.13;;;21.40;99.90;;;;;;5071383;28;20029;-82
2021/07/26 07:17:47;;;;;;;;;;;20.40;99.90;;;;;;5068174;28;20017;-80
2021/07/26 07:20:13;;;;;;;6.97;3.65;;;20.40;99.90;;;;;;5065558;28;19908;-82
2021/07/26 07:22:39;;;;;;;6.47;3.42;;;20.50;99.90;;;;;;5069444;28;20477;-82
2021/07/26 07:25:05;;;;;;;6.38;3.30;;;20.40;99.90;;;;;;5069650;28;20024;-81
2021/07/26 07:27:31;;;;;;;5.18;3.03;;;;;;;;;;5067393;28;20508;-81
2021/07/26 07:29:56;;;;;;;6.38;3.13;;;20.40;99.90;;;;;;5068047;28;20090;-83
2021/07/26 07:32:23;;;;;;;6.43;3.13;;;20.60;99.90;;;;;;5068567;28;20051;-81
2021/07/26 07:34:48;;;;;;;4.63;2.72;;;20.70;99.90;;;;;;5067187;28;20071;-82
2021/07/26 07:37:14;;;;;;;6.10;3.20;;;;;;;;;;5073646;28;20028;-81
2021/07/26 07:39:42;;;;;;;5.65;3.13;;;;;;;;;;5067017;28;20071;-80
2021/07/26 07:42:08;;;;;;;4.75;2.97;;;21.20;99.90;;;;;;5070855;28;20025;-81
2021/07/26 07:44:34;;;;;;;6.97;3.00;;;21.40;99.90;;;;;;5085107;28;20044;-82
2021/07/26 07:47:01;;;;;;;6.45;3.08;;;21.70;99.90;;;;;;5077824;28;20040;-82
2021/07/26 07:49:27;;;;;;;4.03;2.67;;;21.90;99.90;;;;;;5070808;28;20028;-81
2021/07/26 07:51:53;;;;;;;5.50;2.90;;;21.80;99.90;;;;;;5066593;28;20035;-80
2021/07/26 07:54:19;;;;;;;4.03;2.65;;;21.80;99.90;;;;;;5072530;28;20028;-82
2021/07/26 07:56:48;;;;;;;5.70;3.00;;;22.00;99.90;;;;;;5071552;28;20096;-83
2021/07/26 07:59:14;;;;;;;4.38;2.55;;;22.20;99.90;;;;;;5073384;28;20036;-82
2021/07/26 08:01:41;;;;;;;5.07;3.28;;;22.30;99.90;;;;;;5070625;28;20078;-81
2021/07/26 08:04:07;;;;;;;5.25;3.00;;;;;;;;;;5070473;28;20070;-81
2021/07/26 08:06:34;;;;;;;6.45;2.95;;;;;;;;;;5071537;28;20028;-81
2021/07/26 08:09:00;;;;;;;4.97;2.80;;;22.00;99.90;;;;;;5072662;28;20040;-81
2021/07/26 08:11:26;;;;;;;5.00;2.70;;;22.00;99.90;;;;;;5070688;28;20108;-82
2021/07/26 08:13:51;;;;;;;4.97;2.95;;;22.00;99.90;;;;;;5071496;28;20036;-82
2021/07/26 08:16:22;;;;;;;4.82;2.92;;;21.80;99.90;;;;;;5073736;28;20025;-82
2021/07/26 08:18:48;;;;;;;6.35;3.10;;;;;;;;;;5076618;28;20025;-82
2021/07/26 08:21:14;;;;;;;4.47;3.35;;;21.80;99.90;;;;;;5075261;28;20139;-82
2021/07/26 08:23:41;;;;;;;4.03;2.75;;;;;;;;;;5070427;28;20032;-81
2021/07/26 08:26:06;;;;;;;6.68;3.45;;;22.00;99.90;;;;;;5074979;28;20406;-82
2021/07/26 08:28:32;;;;;;;8.32;2.90;;;22.10;99.90;;;;;;5074218;28;20036;-82
2021/07/26 08:31:00;;;;;;;6.55;3.40;;;22.20;99.90;;;;;;5073044;28;20039;-82
2021/07/26 08:33:26;;;;;;;6.18;2.90;;;;;;;;;;5078014;28;20037;-81
2021/07/26 08:35:52;;;;;;;5.82;2.80;;;;;;;;;;5070090;28;20051;-82
2021/07/26 08:38:18;;;;;;;5.30;2.92;;;22.40;99.90;;;;;;5074047;28;20020;-81
2021/07/26 08:40:45;;;;;;;4.10;2.63;;;22.40;99.90;;;;;;5066571;28;20074;-81
2021/07/26 08:43:13;;;;;;;6.80;3.20;;;;;;;;;;5073383;28;20033;-82
2021/07/26 08:45:39;;;;;;;4.63;3.00;;;;;;;;;;5070368;28;20017;-81
2021/07/26 08:48:07;;;;;;;3.83;2.50;;;22.40;99.90;;;;;;5070849;28;20497;-81
2021/07/26 08:50:34;;;;;;;5.18;3.20;;;22.40;99.90;;;;;;5067724;28;20029;-80
2021/07/26 08:53:01;;;;;;;4.72;2.97;;;22.60;99.90;;;;;;5069200;28;20346;-81
2021/07/26 08:55:29;;;;;;;4.80;3.00;;;22.70;99.90;;;;;;5073804;28;20025;-81
2021/07/26 08:57:56;;;;;;;4.22;2.55;;;;;;;;;;5068219;28;20024;-81
2021/07/26 09:00:24;;;;;;;4.95;3.08;;;23.00;99.90;;;;;;5073500;28;20112;-82
2021/07/26 09:02:50;;;;;;;5.05;2.97;;;;;;;;;;5073303;28;20021;-82
2021/07/26 09:05:16;;;;;;;5.45;2.70;;;;;;;;;;5065732;28;20475;-81
2021/07/26 09:07:44;;;;;;;4.38;2.63;;;23.40;99.90;;;;;;5071876;28;20040;-81
2021/07/26 09:10:16;;;;;;;3.83;2.50;;;23.30;99.90;;;;;;5073268;28;20037;-81
2021/07/26 09:12:48;;;;;;;4.60;2.88;;;23.90;99.90;;;;;;5075787;28;20531;-82
2021/07/26 09:15:16;;;;;;;3.80;2.88;;;23.80;99.90;;;;;;5074751;28;20509;-82
2021/07/26 09:17:44;;;;;;;5.20;2.70;;;24.10;99.90;;;;;;5074835;28;20096;-83
2021/07/26 09:20:11;;;;;;;6.47;3.10;;;24.10;99.90;;;;;;5070449;28;20032;-80
2021/07/26 09:22:38;;;;;;;4.10;2.60;;;24.20;99.90;;;;;;5077870;28;20032;-81
2021/07/26 09:25:14;;;;;;;4.07;2.72;;;23.90;99.10;;;;;;5073003;28;20024;-81
2021/07/26 09:27:58;;;;;;;5.65;2.72;;;23.90;99.30;;;;;;5073432;28;20549;-81
2021/07/26 09:30:48;;;;;;;5.43;2.75;;;23.90;99.10;;;;;;5069956;28;20051;-82
2021/07/26 09:33:23;;;;;;;4.60;2.85;;;23.90;99.20;;;;;;5070946;28;20040;-82
2021/07/26 09:36:05;;;;;;;4.45;2.70;;;23.70;99.40;;;;;;5067617;28;20032;-80
2021/07/26 09:38:31;;;;;;;3.78;2.60;;;;;;;;;;5073791;28;20099;-81
2021/07/26 09:40:57;;;;;;;5.78;2.60;;;23.50;99.60;;;;;;5075655;28;20043;-80
2021/07/26 09:43:24;;;;;;;4.50;2.70;;;23.30;98.90;;;;;;5078060;28;20050;-82
2021/07/26 09:45:54;;;;;;;4.10;2.63;;;23.30;99.10;;;;;;5073462;28;20563;-82
2021/07/26 09:48:22;;;;;;;6.95;2.85;;;23.40;99.00;;;;;;5074817;28;20035;-80
2021/07/26 09:50:50;;;;;;;7.18;2.58;;;23.30;99.30;;;;;;5073434;28;20028;-82
2021/07/26 09:53:22;;;;;;;3.53;2.50;;;23.40;99.50;;;;;;5069155;28;20025;-81
2021/07/26 09:55:53;;;;;;;3.88;2.60;;;23.40;99.30;;;;;;5076171;28;20105;-81
2021/07/26 09:58:34;;;;;;;5.90;2.55;;;23.40;99.50;;;;;;5071752;28;20071;-81
2021/07/26 10:01:00;;;;;;;5.38;2.78;;;23.50;99.20;;;;;;5077689;28;20577;-81
2021/07/26 10:03:27;;;;;;;4.57;2.88;;;23.40;99.00;;;;;;5066621;28;20303;-81
2021/07/26 10:05:54;;;;;;;3.95;2.70;;;23.40;99.00;;;;;;5075807;28;20017;-80
2021/07/26 10:08:21;;;;;;;4.50;2.75;;;23.50;98.80;;;;;;5077924;28;20059;-80
2021/07/26 10:10:48;;;;;;;4.10;2.55;;;;;;;;;;5078605;28;20035;-81
2021/07/26 10:13:14;;;;;;;5.25;2.78;;;;;;;;;;5068612;28;20031;-81
2021/07/26 10:15:40;;;;;;;4.05;2.80;;;23.60;98.90;;;;;;5072872;28;20033;-81
2021/07/26 10:18:06;;;;;;;4.00;2.55;;;23.60;99.40;;;;;;5069863;28;20531;-82
2021/07/26 10:20:41;;;;;;;5.07;3.10;;;23.70;98.70;;;;;;5073440;28;20029;-81
2021/07/26 10:23:19;;;;;;;4.88;2.92;;;23.60;98.50;;;;;;5071391;28;20047;-80
2021/07/26 10:26:00;;;;;;;5.18;2.70;;;23.90;98.10;;;;;;5071493;28;20028;-81
2021/07/26 10:28:32;;;;;;;5.53;2.70;;;24.10;99.10;;;;;;5073024;28;20052;-83
2021/07/26 10:30:58;;;;;;;4.00;2.63;;;;;;;;;;5069365;28;20052;-81
2021/07/26 10:33:24;;;;;;;4.78;2.70;;;;;;;;;;5073090;28;20024;-80
2021/07/26 10:35:50;;;;;;;5.88;2.83;;;;;;;;;;5072767;28;20052;-83
2021/07/26 10:38:42;;;;;;;4.97;2.80;;;24.10;97.90;;;;;;5073973;28;20020;-80
2021/07/26 10:41:08;;;;;;;3.95;2.70;;;;;;;;;;5074079;28;20104;-81
2021/07/26 10:44:03;;;;;;;5.03;2.55;;;;;;;;;;5079630;28;20060;-80
2021/07/26 10:46:49;;;;;;;5.05;2.67;;;24.80;96.00;;;;;;5071230;28;20041;-82
2021/07/26 10:49:15;;;;;;;4.07;2.50;;;;;;;;;;5069712;28;20556;-80
2021/07/26 10:51:44;;;;;;;4.05;2.75;;;;;;;;;;5076138;28;20040;-82
2021/07/26 10:54:33;;;;;;;3.72;2.00;;;25.30;95.00;;;;;;5067848;28;20029;-80
2021/07/26 10:57:02;;;;;;;3.58;2.28;;;25.50;93.90;;;;;;5067705;28;20436;-82
2021/07/26 10:59:28;;;;;;;3.47;2.38;;;;;;;;;;5079142;28;20029;-81
2021/07/26 11:02:01;;;;;;;4.13;2.28;;;25.40;93.40;;;;;;5078020;28;20025;-84
2021/07/26 11:04:35;;;;;;;3.83;2.35;;;;;;;;;;5073837;28;20024;-81
2021/07/26 11:07:03;;;;;;;3.83;2.45;;;;;;;;;;5070123;28;20044;-81
2021/07/26 11:09:34;;;;;;;4.95;2.40;;;;;;;;;;5071171;28;20050;-80
2021/07/26 11:12:02;;;;;;;4.30;2.55;;;24.80;94.90;;;;;;5073161;28;20080;-81
2021/07/26 11:14:28;;;;;;;4.38;2.78;;;;;;;;;;5079993;28;20458;-81
2021/07/26 11:17:07;;;;;;;4.93;2.90;;;24.60;95.50;;;;;;5075421;28;20025;-81
2021/07/26 11:19:46;;;;;;;3.90;2.50;;;24.50;96.20;;;;;;5072245;28;20016;-82
2021/07/26 11:22:15;;;;;;;5.37;2.43;;;24.50;95.90;;;;;;5075686;28;20300;-81
2021/07/26 11:24:41;;;;;;;4.68;2.30;;;;;;;;;;5075202;28;20052;-81
2021/07/26 11:27:14;;;;;;;3.10;2.20;;;24.80;94.90;;;;;;5074976;28;20037;-81
2021/07/26 11:29:45;;;;;;;4.10;2.65;;;24.90;95.10;;;;;;5087645;28;20025;-80
2021/07/26 11:32:24;;;;;;;5.35;2.50;;;25.20;94.20;;;;;;5075000;28;20024;-81
2021/07/26 11:34:58;;;;;;;5.20;2.70;;;24.90;94.50;;;;;;5068101;28;20064;-81
2021/07/26 11:37:39;;;;;;;3.47;2.60;;;24.90;94.50;;;;;;5073078;28;20024;-81
2021/07/26 11:40:10;;;;;;;3.42;2.20;;;26.40;94.70;;;;;;5067837;28;20029;-82
2021/07/26 11:42:39;;;;;;;4.60;2.90;;;25.00;93.80;;;;;;5071034;28;20101;-81
2021/07/26 11:45:06;;;;;;;4.60;3.03;;;24.90;94.30;;;;;;5077273;28;20131;-81
2021/07/26 11:47:40;;;;;;;5.05;3.08;;;25.00;94.50;;;;;;5071787;28;20029;-81
2021/07/26 11:50:17;;;;;;;5.72;2.53;;;25.10;94.10;;;;;;5070503;28;20033;-82
2021/07/26 11:52:56;;;;;;;4.60;2.47;;;25.30;93.90;;;;;;5065681;28;20105;-81
2021/07/26 11:55:27;;;;;;;5.97;2.50;;;25.60;92.70;;;;;;5061683;28;20025;-81
2021/07/26 11:58:07;;;;;;;5.50;2.20;;;25.90;92.50;;;;;;5066466;28;20071;-80
2021/07/26 12:00:37;;;;;;;6.25;3.33;;;25.90;92.10;;;;;;5066389;28;20082;-81
2021/07/26 12:03:03;;;;;;;;;;;25.80;92.20;;;;;;5077222;28;20509;-81
2021/07/26 12:05:33;;;;;;;3.60;2.20;;;25.90;91.80;;;;;;5065029;28;19915;-81
2021/07/26 12:08:00;;;;;;;3.75;2.28;;;26.20;91.70;;;;;;5069885;28;20098;-81
2021/07/26 12:10:33;;;;;;;5.30;2.55;;;26.20;90.60;;;;;;5080800;28;20024;-82
2021/07/26 12:13:17;;;;;;;3.17;2.08;;;26.20;90.30;;;;;;5071707;28;20047;-80
2021/07/26 12:15:44;;;;;;;3.88;2.10;;;26.20;89.60;;;;;;5068421;28;20517;-81
2021/07/26 12:18:12;;;;;;;3.92;2.15;;;26.20;88.50;;;;;;5073934;28;20051;-81
2021/07/26 12:20:39;;;;;;;3.60;2.40;;;26.10;88.20;;;;;;5069766;28;20024;-81
2021/07/26 12:23:19;;;;;;;4.22;2.35;;;26.20;88.60;;;;;;5062861;28;20024;-80
2021/07/26 12:25:50;;;;;;;4.38;2.30;;;26.60;88.80;;;;;;5061227;28;20027;-81
2021/07/26 12:28:17;;;;;;;4.30;2.50;;;26.60;87.60;;;;;;5069678;28;20024;-81
2021/07/26 12:30:50;;;;;;;3.70;2.30;;;26.80;87.70;;;;;;5069083;28;20028;-81
2021/07/26 12:33:30;;;;;;;4.15;2.55;;;26.70;87.40;;;;;;5071366;28;20042;-82
2021/07/26 12:36:12;;;;;;;9.52;2.38;;;26.50;87.40;;;;;;5061840;28;20096;-81
2021/07/26 12:38:39;;;;;;;4.13;2.70;;;25.90;87.50;;;;;;5070547;28;20109;-81
2021/07/26 12:41:08;;;;;;;4.55;2.75;;;25.90;89.20;;;;;;5063695;28;20082;-81
2021/07/26 12:43:34;;;;;;;3.08;2.08;;;26.10;87.50;;;;;;5068819;28;20031;-82
2021/07/26 12:46:05;;;;;;;2.88;1.80;;;26.10;88.30;;;;;;5070732;28;20029;-82
2021/07/26 12:48:32;;;;;;;3.63;2.22;;;26.20;87.10;;;;;;5075649;28;20027;-81
2021/07/26 12:50:58;;;;;;;4.25;2.30;;;26.40;86.30;;;;;;5072046;28;20497;-81
2021/07/26 12:53:26;;;;;;;3.00;2.03;;;26.50;85.90;;;;;;5067306;28;20032;-81
2021/07/26 12:55:52;;;;;;;3.53;2.00;;;26.50;85.20;;;;;;5069153;28;20679;-81
2021/07/26 12:58:19;;;;;;;3.53;2.05;;;26.40;86.30;;;;;;5068328;28;20552;-81
2021/07/26 13:00:49;;;;;;;2.80;2.00;;;26.50;85.80;;;;;;5064013;28;20024;-81
2021/07/26 13:03:15;;;;;;;;;;;26.60;86.20;;;;;;5065841;28;20047;-79
2021/07/26 13:05:49;;;;;;;3.10;2.25;;;26.70;85.00;;;;;;5070729;28;19912;-81
2021/07/26 13:08:16;;;;;;;6.40;2.53;;;26.80;84.50;;;;;;5072014;28;20033;-82
2021/07/26 13:10:43;;;;;;;4.18;2.60;;;26.80;84.90;;;;;;5063786;28;20033;-80
2021/07/26 13:13:12;;;;;;;5.47;3.10;;;26.60;84.20;;;;;;5067032;28;20032;-79
2021/07/26 13:15:39;;;;;;;3.40;2.17;;;26.60;85.10;;;;;;5066302;28;20217;-82